sensor_id;sensor_type;location;lat;lon;timestamp;temperature;humidity
15967;DHT22;15175;48.154;11.534;2023-10-31T00:01:05;12.10;99.90
15967;DHT22;15175;48.154;11.534;2023-10-31T00:03:33;12.00;99.90
15967;DHT22;15175;48.154;11.534;2023-10-31T00:06:01;12.10;99.90
15967;DHT22;15175;48.154;11.534;2023-10-31T00:08:30;12.00;99.90
15967;DHT22;15175;48.154;11.534;2023-10-31T00:10:57;12.00;99.90
15967;DHT22;15175;48.154;11.534;2023-10-31T00:13:24;11.90;99.90
15967;DHT22;15175;48.154;11.534;2023-10-31T00:15:51;11.90;99.90
15967;DHT22;15175;48.154;11.534;2023-10-31T00:18:18;11.80;99.90
15967;DHT22;15175;48.154;11.534;2023-10-31T00:20:46;11.80;99.90
15967;DHT22;15175;48.154;11.534;2023-10-31T00:23:15;11.70;99.90
15967;DHT22;15175;48.154;11.534;2023-10-31T00:25:43;11.70;99.90
15967;DHT22;15175;48.154;11.534;2023-10-31T00:28:10;11.70;99.90
15967;DHT22;15175;48.154;11.534;2023-10-31T00:30:37;11.60;99.90
15967;DHT22;15175;48.154;11.534;2023-10-31T00:33:04;11.60;99.90
15967;DHT22;15175;48.154;11.534;2023-10-31T00:35:32;11.60;99.90
15967;DHT22;15175;48.154;11.534;2023-10-31T00:37:59;11.60;99.90
15967;DHT22;15175;48.154;11.534;2023-10-31T00:40:26;11.60;99.90
15967;DHT22;15175;48.154;11.534;2023-10-31T00:42:55;11.60;99.90
15967;DHT22;15175;48.154;11.534;2023-10-31T00:45:24;11.50;99.90
15967;DHT22;15175;48.154;11.534;2023-10-31T00:47:51;11.50;99.90
15967;DHT22;15175;48.154;11.534;2023-10-31T00:50:18;11.50;99.90
15967;DHT22;15175;48.154;11.534;2023-10-31T00:52:45;11.50;99.90
15967;DHT22;15175;48.154;11.534;2023-10-31T00:55:12;11.50;99.90
15967;DHT22;15175;48.154;11.534;2023-10-31T00:57:39;11.50;99.90
15967;DHT22;15175;48.154;11.534;2023-10-31T01:00:09;11.50;99.90
15967;DHT22;15175;48.154;11.534;2023-10-31T01:02:36;11.50;99.90
15967;DHT22;15175;48.154;11.534;2023-10-31T01:05:04;11.50;99.90
15967;DHT22;15175;48.154;11.534;2023-10-31T01:07:31;11.40;99.90
15967;DHT22;15175;48.154;11.534;2023-10-31T01:09:58;11.40;99.90
15967;DHT22;15175;48.154;11.534;2023-10-31T01:12:25;11.40;99.90
15967;DHT22;15175;48.154;11.534;2023-10-31T01:14:53;11.40;99.90
15967;DHT22;15175;48.154;11.534;2023-10-31T01:17:22;11.40;99.90
15967;DHT22;15175;48.154;11.534;2023-10-31T01:19:49;11.30;99.90
15967;DHT22;15175;48.154;11.534;2023-10-31T01:22:17;11.30;99.90
15967;DHT22;15175;48.154;11.534;2023-10-31T01:24:44;11.30;99.90
15967;DHT22;15175;48.154;11.534;2023-10-31T01:27:11;11.30;99.90
15967;DHT22;15175;48.154;11.534;2023-10-31T01:29:38;11.30;99.90
15967;DHT22;15175;48.154;11.534;2023-10-31T01:32:06;11.30;99.90
15967;DHT22;15175;48.154;11.534;2023-10-31T01:34:34;11.30;99.90
15967;DHT22;15175;48.154;11.534;2023-10-31T01:37:01;11.30;99.90
15967;DHT22;15175;48.154;11.534;2023-10-31T01:39:29;11.30;99.90
15967;DHT22;15175;48.154;11.534;2023-10-31T01:41:56;11.20;99.90
15967;DHT22;15175;48.154;11.534;2023-10-31T01:44:23;11.20;99.90
15967;DHT22;15175;48.154;11.534;2023-10-31T01:46:51;11.20;99.90
15967;DHT22;15175;48.154;11.534;2023-10-31T01:49:18;11.20;99.90
15967;DHT22;15175;48.154;11.534;2023-10-31T01:51:47;11.30;99.90
15967;DHT22;15175;48.154;11.534;2023-10-31T01:54:14;11.30;99.90
15967;DHT22;15175;48.154;11.534;2023-10-31T01:56:42;11.30;99.90
15967;DHT22;15175;48.154;11.534;2023-10-31T01:59:10;11.30;99.90
15967;DHT22;15175;48.154;11.534;2023-10-31T02:01:38;11.20;99.90
15967;DHT22;15175;48.154;11.534;2023-10-31T02:04:06;11.20;99.90
15967;DHT22;15175;48.154;11.534;2023-10-31T02:06:33;11.20;99.90
15967;DHT22;15175;48.154;11.534;2023-10-31T02:09:02;11.20;99.90
15967;DHT22;15175;48.154;11.534;2023-10-31T02:11:29;11.20;99.90
15967;DHT22;15175;48.154;11.534;2023-10-31T02:13:56;11.20;99.90
15967;DHT22;15175;48.154;11.534;2023-10-31T02:16:23;11.20;99.90
15967;DHT22;15175;48.154;11.534;2023-10-31T02:18:51;11.20;99.90
15967;DHT22;15175;48.154;11.534;2023-10-31T02:21:19;11.20;99.90
15967;DHT22;15175;48.154;11.534;2023-10-31T02:23:57;11.20;99.90
15967;DHT22;15175;48.154;11.534;2023-10-31T02:26:28;11.10;99.90
15967;DHT22;15175;48.154;11.534;2023-10-31T02:28:56;11.20;99.90
15967;DHT22;15175;48.154;11.534;2023-10-31T02:31:23;11.20;99.90
15967;DHT22;15175;48.154;11.534;2023-10-31T02:33:50;11.10;99.90
15967;DHT22;15175;48.154;11.534;2023-10-31T02:36:17;11.20;99.90
15967;DHT22;15175;48.154;11.534;2023-10-31T02:38:45;11.10;99.90
15967;DHT22;15175;48.154;11.534;2023-10-31T02:41:15;11.10;99.90
15967;DHT22;15175;48.154;11.534;2023-10-31T02:43:42;11.10;99.90
15967;DHT22;15175;48.154;11.534;2023-10-31T02:46:09;11.00;99.90
15967;DHT22;15175;48.154;11.534;2023-10-31T02:48:38;11.00;99.90
15967;DHT22;15175;48.154;11.534;2023-10-31T02:51:06;11.00;99.90
15967;DHT22;15175;48.154;11.534;2023-10-31T02:53:34;11.00;99.90
15967;DHT22;15175;48.154;11.534;2023-10-31T02:56:02;11.00;99.90
15967;DHT22;15175;48.154;11.534;2023-10-31T02:58:31;11.00;99.90
15967;DHT22;15175;48.154;11.534;2023-10-31T03:00:58;10.90;99.90
15967;DHT22;15175;48.154;11.534;2023-10-31T03:03:25;10.90;99.90
15967;DHT22;15175;48.154;11.534;2023-10-31T03:05:52;10.90;99.90
15967;DHT22;15175;48.154;11.534;2023-10-31T03:08:19;10.90;99.90
15967;DHT22;15175;48.154;11.534;2023-10-31T03:10:48;10.90;99.90
15967;DHT22;15175;48.154;11.534;2023-10-31T03:13:17;10.90;99.90
15967;DHT22;15175;48.154;11.534;2023-10-31T03:15:47;10.90;99.90
15967;DHT22;15175;48.154;11.534;2023-10-31T03:18:14;10.90;99.90
15967;DHT22;15175;48.154;11.534;2023-10-31T03:20:44;10.90;99.90
15967;DHT22;15175;48.154;11.534;2023-10-31T03:23:12;10.90;99.90
15967;DHT22;15175;48.154;11.534;2023-10-31T03:25:39;10.90;99.90
15967;DHT22;15175;48.154;11.534;2023-10-31T03:28:25;10.90;99.90
15967;DHT22;15175;48.154;11.534;2023-10-31T03:30:54;10.90;99.90
15967;DHT22;15175;48.154;11.534;2023-10-31T03:33:23;10.90;99.90
15967;DHT22;15175;48.154;11.534;2023-10-31T03:35:50;10.90;99.90
15967;DHT22;15175;48.154;11.534;2023-10-31T03:38:17;10.90;99.90
15967;DHT22;15175;48.154;11.534;2023-10-31T03:40:44;10.80;99.90
15967;DHT22;15175;48.154;11.534;2023-10-31T03:43:11;10.80;99.90
15967;DHT22;15175;48.154;11.534;2023-10-31T03:45:39;10.80;99.90
15967;DHT22;15175;48.154;11.534;2023-10-31T03:48:08;10.90;99.90
15967;DHT22;15175;48.154;11.534;2023-10-31T03:50:35;10.80;99.90
15967;DHT22;15175;48.154;11.534;2023-10-31T03:53:02;10.80;99.90
15967;DHT22;15175;48.154;11.534;2023-10-31T03:55:30;10.80;99.90
15967;DHT22;15175;48.154;11.534;2023-10-31T03:57:57;10.80;99.90
15967;DHT22;15175;48.154;11.534;2023-10-31T04:00:24;10.80;99.90
15967;DHT22;15175;48.154;11.534;2023-10-31T04:02:51;10.80;99.90
15967;DHT22;15175;48.154;11.534;2023-10-31T04:05:20;10.80;99.90
15967;DHT22;15175;48.154;11.534;2023-10-31T04:07:49;10.80;99.90
15967;DHT22;15175;48.154;11.534;2023-10-31T04:10:17;10.80;99.90
15967;DHT22;15175;48.154;11.534;2023-10-31T04:12:45;10.80;99.90
15967;DHT22;15175;48.154;11.534;2023-10-31T04:15:12;10.80;99.90
15967;DHT22;15175;48.154;11.534;2023-10-31T04:17:40;10.80;99.90
15967;DHT22;15175;48.154;11.534;2023-10-31T04:20:08;10.80;99.90
15967;DHT22;15175;48.154;11.534;2023-10-31T04:22:36;10.80;99.90
15967;DHT22;15175;48.154;11.534;2023-10-31T04:25:04;10.80;99.90
15967;DHT22;15175;48.154;11.534;2023-10-31T04:27:31;10.80;99.90
15967;DHT22;15175;48.154;11.534;2023-10-31T04:29:59;10.80;99.90
15967;DHT22;15175;48.154;11.534;2023-10-31T04:32:26;10.80;99.90
15967;DHT22;15175;48.154;11.534;2023-10-31T04:34:53;10.80;99.90
15967;DHT22;15175;48.154;11.534;2023-10-31T04:37:20;10.80;99.90
15967;DHT22;15175;48.154;11.534;2023-10-31T04:39:48;10.80;99.90
15967;DHT22;15175;48.154;11.534;2023-10-31T04:42:15;10.80;99.90
15967;DHT22;15175;48.154;11.534;2023-10-31T04:44:43;10.80;99.90
15967;DHT22;15175;48.154;11.534;2023-10-31T04:47:10;10.80;99.90
15967;DHT22;15175;48.154;11.534;2023-10-31T04:49:37;10.80;99.90
15967;DHT22;15175;48.154;11.534;2023-10-31T04:52:05;10.80;99.90
15967;DHT22;15175;48.154;11.534;2023-10-31T04:54:32;10.80;99.90
15967;DHT22;15175;48.154;11.534;2023-10-31T04:57:01;10.80;99.90
15967;DHT22;15175;48.154;11.534;2023-10-31T04:59:29;10.80;99.90
15967;DHT22;15175;48.154;11.534;2023-10-31T05:01:56;10.80;99.90
15967;DHT22;15175;48.154;11.534;2023-10-31T05:04:23;10.80;99.90
15967;DHT22;15175;48.154;11.534;2023-10-31T05:06:50;10.80;99.90
15967;DHT22;15175;48.154;11.534;2023-10-31T05:09:17;10.80;99.90
15967;DHT22;15175;48.154;11.534;2023-10-31T05:11:45;10.80;99.90
15967;DHT22;15175;48.154;11.534;2023-10-31T05:14:14;10.80;99.90
15967;DHT22;15175;48.154;11.534;2023-10-31T05:16:42;10.80;99.90
15967;DHT22;15175;48.154;11.534;2023-10-31T05:19:09;10.80;99.90
15967;DHT22;15175;48.154;11.534;2023-10-31T05:21:36;10.80;99.90
15967;DHT22;15175;48.154;11.534;2023-10-31T05:24:04;10.80;99.90
15967;DHT22;15175;48.154;11.534;2023-10-31T05:26:32;10.80;99.90
15967;DHT22;15175;48.154;11.534;2023-10-31T05:28:59;10.80;99.90
15967;DHT22;15175;48.154;11.534;2023-10-31T05:31:27;10.80;99.90
15967;DHT22;15175;48.154;11.534;2023-10-31T05:33:54;10.80;99.90
15967;DHT22;15175;48.154;11.534;2023-10-31T05:36:23;10.80;99.90
15967;DHT22;15175;48.154;11.534;2023-10-31T05:38:50;10.90;99.90
15967;DHT22;15175;48.154;11.534;2023-10-31T05:41:17;10.90;99.90
15967;DHT22;15175;48.154;11.534;2023-10-31T05:43:45;10.80;99.90
15967;DHT22;15175;48.154;11.534;2023-10-31T05:46:12;10.80;99.90
15967;DHT22;15175;48.154;11.534;2023-10-31T05:48:43;10.80;99.90
15967;DHT22;15175;48.154;11.534;2023-10-31T05:51:11;10.80;99.90
15967;DHT22;15175;48.154;11.534;2023-10-31T05:53:41;10.70;99.90
15967;DHT22;15175;48.154;11.534;2023-10-31T05:56:09;10.70;99.90
15967;DHT22;15175;48.154;11.534;2023-10-31T05:58:37;10.80;99.90
15967;DHT22;15175;48.154;11.534;2023-10-31T06:01:08;10.80;99.90
15967;DHT22;15175;48.154;11.534;2023-10-31T06:03:37;10.80;99.90
15967;DHT22;15175;48.154;11.534;2023-10-31T06:06:06;10.80;99.90
15967;DHT22;15175;48.154;11.534;2023-10-31T06:08:34;10.80;99.90
15967;DHT22;15175;48.154;11.534;2023-10-31T06:11:03;10.80;99.90
15967;DHT22;15175;48.154;11.534;2023-10-31T06:13:30;10.70;99.90
15967;DHT22;15175;48.154;11.534;2023-10-31T06:15:57;10.70;99.90
15967;DHT22;15175;48.154;11.534;2023-10-31T06:18:24;10.70;99.90
15967;DHT22;15175;48.154;11.534;2023-10-31T06:20:52;10.70;99.90
15967;DHT22;15175;48.154;11.534;2023-10-31T06:23:21;10.70;99.90
15967;DHT22;15175;48.154;11.534;2023-10-31T06:25:48;10.70;99.90
15967;DHT22;15175;48.154;11.534;2023-10-31T06:28:15;10.70;99.90
15967;DHT22;15175;48.154;11.534;2023-10-31T06:30:42;10.70;99.90
15967;DHT22;15175;48.154;11.534;2023-10-31T06:33:09;10.70;99.90
15967;DHT22;15175;48.154;11.534;2023-10-31T06:35:37;10.70;99.90
15967;DHT22;15175;48.154;11.534;2023-10-31T06:38:04;10.70;99.90
15967;DHT22;15175;48.154;11.534;2023-10-31T06:40:33;10.80;99.90
15967;DHT22;15175;48.154;11.534;2023-10-31T06:43:01;10.70;99.90
15967;DHT22;15175;48.154;11.534;2023-10-31T06:45:28;10.80;99.90
15967;DHT22;15175;48.154;11.534;2023-10-31T06:47:55;10.80;99.90
15967;DHT22;15175;48.154;11.534;2023-10-31T06:50:22;10.80;99.90
15967;DHT22;15175;48.154;11.534;2023-10-31T06:52:50;10.80;99.90
15967;DHT22;15175;48.154;11.534;2023-10-31T06:55:17;10.80;99.90
15967;DHT22;15175;48.154;11.534;2023-10-31T06:57:45;10.80;99.90
15967;DHT22;15175;48.154;11.534;2023-10-31T07:00:13;10.80;99.90
15967;DHT22;15175;48.154;11.534;2023-10-31T07:02:40;10.80;99.90
15967;DHT22;15175;48.154;11.534;2023-10-31T07:05:08;10.80;99.90
15967;DHT22;15175;48.154;11.534;2023-10-31T07:07:35;10.80;99.90
15967;DHT22;15175;48.154;11.534;2023-10-31T07:10:03;10.80;99.90
15967;DHT22;15175;48.154;11.534;2023-10-31T07:12:31;10.80;99.90
15967;DHT22;15175;48.154;11.534;2023-10-31T07:14:59;10.80;99.90
15967;DHT22;15175;48.154;11.534;2023-10-31T07:17:27;10.80;99.90
15967;DHT22;15175;48.154;11.534;2023-10-31T07:19:54;10.80;99.90
15967;DHT22;15175;48.154;11.534;2023-10-31T07:22:21;10.80;99.90
15967;DHT22;15175;48.154;11.534;2023-10-31T07:24:50;10.80;99.90
15967;DHT22;15175;48.154;11.534;2023-10-31T07:27:17;10.80;99.90
15967;DHT22;15175;48.154;11.534;2023-10-31T07:29:44;10.90;99.90
15967;DHT22;15175;48.154;11.534;2023-10-31T07:32:13;10.90;99.90
15967;DHT22;15175;48.154;11.534;2023-10-31T07:34:41;10.90;99.90
15967;DHT22;15175;48.154;11.534;2023-10-31T07:37:09;10.90;99.90
15967;DHT22;15175;48.154;11.534;2023-10-31T07:39:36;10.90;99.90
15967;DHT22;15175;48.154;11.534;2023-10-31T07:42:04;10.90;99.90
15967;DHT22;15175;48.154;11.534;2023-10-31T07:44:31;10.90;99.90
15967;DHT22;15175;48.154;11.534;2023-10-31T07:46:58;10.90;99.90
15967;DHT22;15175;48.154;11.534;2023-10-31T07:49:27;11.00;99.90
15967;DHT22;15175;48.154;11.534;2023-10-31T07:51:54;11.00;99.90
15967;DHT22;15175;48.154;11.534;2023-10-31T07:54:21;11.00;99.90
15967;DHT22;15175;48.154;11.534;2023-10-31T07:56:48;11.00;99.90
15967;DHT22;15175;48.154;11.534;2023-10-31T07:59:15;11.00;99.90
15967;DHT22;15175;48.154;11.534;2023-10-31T08:01:43;11.00;99.90
15967;DHT22;15175;48.154;11.534;2023-10-31T08:04:10;11.00;99.90
15967;DHT22;15175;48.154;11.534;2023-10-31T08:06:38;11.10;99.90
15967;DHT22;15175;48.154;11.534;2023-10-31T08:09:05;11.00;99.90
15967;DHT22;15175;48.154;11.534;2023-10-31T08:11:32;11.10;99.90
15967;DHT22;15175;48.154;11.534;2023-10-31T08:14:01;11.10;99.90
15967;DHT22;15175;48.154;11.534;2023-10-31T08:16:28;11.10;99.90
15967;DHT22;15175;48.154;11.534;2023-10-31T08:18:55;11.10;99.90
15967;DHT22;15175;48.154;11.534;2023-10-31T08:21:22;11.10;99.90
15967;DHT22;15175;48.154;11.534;2023-10-31T08:23:51;11.10;99.90
15967;DHT22;15175;48.154;11.534;2023-10-31T08:26:18;11.10;99.90
15967;DHT22;15175;48.154;11.534;2023-10-31T08:28:45;11.10;99.90
15967;DHT22;15175;48.154;11.534;2023-10-31T08:31:13;11.10;99.90
15967;DHT22;15175;48.154;11.534;2023-10-31T08:33:40;11.10;99.90
15967;DHT22;15175;48.154;11.534;2023-10-31T08:36:08;11.10;99.90
15967;DHT22;15175;48.154;11.534;2023-10-31T08:38:35;11.20;99.90
15967;DHT22;15175;48.154;11.534;2023-10-31T08:41:04;11.20;99.90
15967;DHT22;15175;48.154;11.534;2023-10-31T08:43:31;11.20;99.90
15967;DHT22;15175;48.154;11.534;2023-10-31T08:45:58;11.20;99.90
15967;DHT22;15175;48.154;11.534;2023-10-31T08:48:26;11.20;99.90
15967;DHT22;15175;48.154;11.534;2023-10-31T08:50:53;11.20;99.90
15967;DHT22;15175;48.154;11.534;2023-10-31T08:53:20;11.20;99.90
15967;DHT22;15175;48.154;11.534;2023-10-31T08:55:48;11.20;99.90
15967;DHT22;15175;48.154;11.534;2023-10-31T08:58:16;11.20;99.90
15967;DHT22;15175;48.154;11.534;2023-10-31T09:00:44;11.30;99.90
15967;DHT22;15175;48.154;11.534;2023-10-31T09:03:14;11.30;99.90
15967;DHT22;15175;48.154;11.534;2023-10-31T09:05:41;11.30;99.90
15967;DHT22;15175;48.154;11.534;2023-10-31T09:08:08;11.30;99.90
15967;DHT22;15175;48.154;11.534;2023-10-31T09:10:36;11.30;99.90
15967;DHT22;15175;48.154;11.534;2023-10-31T09:13:04;11.10;99.90
15967;DHT22;15175;48.154;11.534;2023-10-31T09:15:33;11.30;99.90
15967;DHT22;15175;48.154;11.534;2023-10-31T09:18:00;11.30;99.90
15967;DHT22;15175;48.154;11.534;2023-10-31T09:20:27;11.30;99.90
15967;DHT22;15175;48.154;11.534;2023-10-31T09:22:55;11.40;99.90
15967;DHT22;15175;48.154;11.534;2023-10-31T09:25:23;11.40;99.90
15967;DHT22;15175;48.154;11.534;2023-10-31T09:27:50;11.40;99.90
15967;DHT22;15175;48.154;11.534;2023-10-31T09:30:17;11.40;99.90
15967;DHT22;15175;48.154;11.534;2023-10-31T09:32:46;11.40;99.90
15967;DHT22;15175;48.154;11.534;2023-10-31T09:35:14;11.40;99.90
15967;DHT22;15175;48.154;11.534;2023-10-31T09:37:42;11.40;99.90
15967;DHT22;15175;48.154;11.534;2023-10-31T09:40:10;11.40;99.90
15967;DHT22;15175;48.154;11.534;2023-10-31T09:42:37;11.40;99.90
15967;DHT22;15175;48.154;11.534;2023-10-31T09:45:05;11.40;99.90
15967;DHT22;15175;48.154;11.534;2023-10-31T09:47:32;11.40;99.90
15967;DHT22;15175;48.154;11.534;2023-10-31T09:50:01;11.50;99.90
15967;DHT22;15175;48.154;11.534;2023-10-31T09:52:29;11.50;99.90
15967;DHT22;15175;48.154;11.534;2023-10-31T09:54:56;11.50;99.90
15967;DHT22;15175;48.154;11.534;2023-10-31T09:57:24;11.50;99.90
15967;DHT22;15175;48.154;11.534;2023-10-31T09:59:52;11.60;99.90
15967;DHT22;15175;48.154;11.534;2023-10-31T10:02:19;11.60;99.90
15967;DHT22;15175;48.154;11.534;2023-10-31T10:04:47;11.60;99.90
15967;DHT22;15175;48.154;11.534;2023-10-31T10:07:17;11.60;99.90
15967;DHT22;15175;48.154;11.534;2023-10-31T10:09:45;11.60;99.90
15967;DHT22;15175;48.154;11.534;2023-10-31T10:12:13;11.60;99.90
15967;DHT22;15175;48.154;11.534;2023-10-31T10:14:40;11.60;99.90
15967;DHT22;15175;48.154;11.534;2023-10-31T10:17:14;11.60;99.90
15967;DHT22;15175;48.154;11.534;2023-10-31T10:19:42;11.50;99.90
15967;DHT22;15175;48.154;11.534;2023-10-31T10:22:10;11.70;99.90
15967;DHT22;15175;48.154;11.534;2023-10-31T10:24:41;11.70;99.90
15967;DHT22;15175;48.154;11.534;2023-10-31T10:27:08;11.70;99.90
15967;DHT22;15175;48.154;11.534;2023-10-31T10:29:37;11.70;99.90
15967;DHT22;15175;48.154;11.534;2023-10-31T10:34:42;11.70;99.90
15967;DHT22;15175;48.154;11.534;2023-10-31T10:37:09;11.80;99.90
15967;DHT22;15175;48.154;11.534;2023-10-31T10:39:37;11.80;99.90
15967;DHT22;15175;48.154;11.534;2023-10-31T10:42:10;11.80;99.90
15967;DHT22;15175;48.154;11.534;2023-10-31T10:44:41;11.80;99.90
15967;DHT22;15175;48.154;11.534;2023-10-31T10:47:12;11.80;99.90
15967;DHT22;15175;48.154;11.534;2023-10-31T10:49:42;11.90;99.90
15967;DHT22;15175;48.154;11.534;2023-10-31T10:52:21;11.90;99.90
15967;DHT22;15175;48.154;11.534;2023-10-31T10:54:53;11.80;99.90
15967;DHT22;15175;48.154;11.534;2023-10-31T10:57:31;11.90;99.90
15967;DHT22;15175;48.154;11.534;2023-10-31T11:00:03;11.90;99.90
15967;DHT22;15175;48.154;11.534;2023-10-31T11:02:32;11.90;99.90
15967;DHT22;15175;48.154;11.534;2023-10-31T11:05:02;12.00;99.90
15967;DHT22;15175;48.154;11.534;2023-10-31T11:07:29;12.00;99.90
15967;DHT22;15175;48.154;11.534;2023-10-31T11:09:57;12.00;99.90
15967;DHT22;15175;48.154;11.534;2023-10-31T11:12:29;12.10;99.90
15967;DHT22;15175;48.154;11.534;2023-10-31T11:14:57;12.10;99.90
15967;DHT22;15175;48.154;11.534;2023-10-31T11:17:27;12.10;99.90
15967;DHT22;15175;48.154;11.534;2023-10-31T11:19:56;12.20;99.90
15967;DHT22;15175;48.154;11.534;2023-10-31T11:22:23;12.20;99.90
15967;DHT22;15175;48.154;11.534;2023-10-31T11:24:50;12.20;99.90
15967;DHT22;15175;48.154;11.534;2023-10-31T11:27:18;12.30;99.90
15967;DHT22;15175;48.154;11.534;2023-10-31T11:29:47;12.30;99.90
15967;DHT22;15175;48.154;11.534;2023-10-31T11:32:15;12.30;99.90
15967;DHT22;15175;48.154;11.534;2023-10-31T11:34:42;12.30;99.90
15967;DHT22;15175;48.154;11.534;2023-10-31T11:37:23;12.40;99.90
15967;DHT22;15175;48.154;11.534;2023-10-31T11:40:15;12.40;99.90
15967;DHT22;15175;48.154;11.534;2023-10-31T11:42:42;12.50;99.90
15967;DHT22;15175;48.154;11.534;2023-10-31T11:45:11;12.50;99.90
15967;DHT22;15175;48.154;11.534;2023-10-31T11:47:46;12.50;99.90
15967;DHT22;15175;48.154;11.534;2023-10-31T11:50:13;12.50;99.90
15967;DHT22;15175;48.154;11.534;2023-10-31T11:52:40;12.50;99.90
15967;DHT22;15175;48.154;11.534;2023-10-31T11:55:09;12.50;99.90
15967;DHT22;15175;48.154;11.534;2023-10-31T11:57:37;12.60;99.90
15967;DHT22;15175;48.154;11.534;2023-10-31T12:00:06;12.60;99.90
15967;DHT22;15175;48.154;11.534;2023-10-31T12:02:39;12.60;99.90
15967;DHT22;15175;48.154;11.534;2023-10-31T12:05:08;12.70;99.90
15967;DHT22;15175;48.154;11.534;2023-10-31T12:07:42;12.70;99.90
15967;DHT22;15175;48.154;11.534;2023-10-31T12:10:10;12.70;99.90
15967;DHT22;15175;48.154;11.534;2023-10-31T12:12:37;12.70;99.90
15967;DHT22;15175;48.154;11.534;2023-10-31T12:15:05;12.80;99.90
15967;DHT22;15175;48.154;11.534;2023-10-31T12:17:34;12.90;99.90
15967;DHT22;15175;48.154;11.534;2023-10-31T12:20:06;13.00;99.90
15967;DHT22;15175;48.154;11.534;2023-10-31T12:22:33;13.00;99.90
15967;DHT22;15175;48.154;11.534;2023-10-31T12:25:01;13.00;99.90
15967;DHT22;15175;48.154;11.534;2023-10-31T12:27:42;13.00;99.90
15967;DHT22;15175;48.154;11.534;2023-10-31T12:30:10;13.10;99.90
15967;DHT22;15175;48.154;11.534;2023-10-31T12:32:38;13.10;99.90
15967;DHT22;15175;48.154;11.534;2023-10-31T12:35:09;13.10;99.90
15967;DHT22;15175;48.154;11.534;2023-10-31T12:37:43;13.10;99.90
15967;DHT22;15175;48.154;11.534;2023-10-31T12:40:12;13.10;99.90
15967;DHT22;15175;48.154;11.534;2023-10-31T12:42:42;13.10;99.90
15967;DHT22;15175;48.154;11.534;2023-10-31T12:45:10;13.10;99.90
15967;DHT22;15175;48.154;11.534;2023-10-31T12:47:38;13.10;99.90
15967;DHT22;15175;48.154;11.534;2023-10-31T12:50:09;13.10;99.90
15967;DHT22;15175;48.154;11.534;2023-10-31T12:52:50;13.10;99.90
15967;DHT22;15175;48.154;11.534;2023-10-31T12:55:19;13.10;99.90
15967;DHT22;15175;48.154;11.534;2023-10-31T12:57:47;13.10;99.90
15967;DHT22;15175;48.154;11.534;2023-10-31T13:00:17;13.10;99.90
15967;DHT22;15175;48.154;11.534;2023-10-31T13:02:50;13.00;99.90
15967;DHT22;15175;48.154;11.534;2023-10-31T13:05:20;13.00;99.90
15967;DHT22;15175;48.154;11.534;2023-10-31T13:07:53;12.90;99.90
15967;DHT22;15175;48.154;11.534;2023-10-31T13:10:22;12.90;99.90
15967;DHT22;15175;48.154;11.534;2023-10-31T13:12:50;12.90;99.90
15967;DHT22;15175;48.154;11.534;2023-10-31T13:15:19;12.90;99.90
15967;DHT22;15175;48.154;11.534;2023-10-31T13:17:48;12.90;99.90
15967;DHT22;15175;48.154;11.534;2023-10-31T13:20:16;12.90;99.90
15967;DHT22;15175;48.154;11.534;2023-10-31T13:22:45;12.80;99.90
15967;DHT22;15175;48.154;11.534;2023-10-31T13:25:14;12.70;99.90
15967;DHT22;15175;48.154;11.534;2023-10-31T13:27:42;12.60;99.90
15967;DHT22;15175;48.154;11.534;2023-10-31T13:30:11;12.60;99.90
15967;DHT22;15175;48.154;11.534;2023-10-31T13:32:39;12.60;99.90
15967;DHT22;15175;48.154;11.534;2023-10-31T13:35:07;12.60;99.90
15967;DHT22;15175;48.154;11.534;2023-10-31T13:37:35;12.50;99.90
15967;DHT22;15175;48.154;11.534;2023-10-31T13:40:04;12.60;99.90
15967;DHT22;15175;48.154;11.534;2023-10-31T13:42:34;12.60;99.90
15967;DHT22;15175;48.154;11.534;2023-10-31T13:45:01;12.60;99.90
15967;DHT22;15175;48.154;11.534;2023-10-31T13:47:28;12.60;99.90
15967;DHT22;15175;48.154;11.534;2023-10-31T13:49:56;12.50;99.90
15967;DHT22;15175;48.154;11.534;2023-10-31T13:52:23;12.50;99.90
15967;DHT22;15175;48.154;11.534;2023-10-31T13:54:50;12.50;99.90
15967;DHT22;15175;48.154;11.534;2023-10-31T13:57:18;12.50;99.90
15967;DHT22;15175;48.154;11.534;2023-10-31T13:59:46;12.50;99.90
15967;DHT22;15175;48.154;11.534;2023-10-31T14:02:13;12.50;99.90
15967;DHT22;15175;48.154;11.534;2023-10-31T14:04:43;12.50;99.90
15967;DHT22;15175;48.154;11.534;2023-10-31T14:07:12;12.50;99.90
15967;DHT22;15175;48.154;11.534;2023-10-31T14:09:42;12.50;99.90
15967;DHT22;15175;48.154;11.534;2023-10-31T14:12:09;12.50;99.90
15967;DHT22;15175;48.154;11.534;2023-10-31T14:14:37;12.40;99.90
15967;DHT22;15175;48.154;11.534;2023-10-31T14:17:05;12.50;99.90
15967;DHT22;15175;48.154;11.534;2023-10-31T14:19:32;12.50;99.90
15967;DHT22;15175;48.154;11.534;2023-10-31T14:21:59;12.50;99.90
15967;DHT22;15175;48.154;11.534;2023-10-31T14:24:26;12.40;99.90
15967;DHT22;15175;48.154;11.534;2023-10-31T14:26:54;12.40;99.90
15967;DHT22;15175;48.154;11.534;2023-10-31T14:29:21;12.40;99.90
15967;DHT22;15175;48.154;11.534;2023-10-31T14:31:50;12.40;99.90
15967;DHT22;15175;48.154;11.534;2023-10-31T14:34:17;12.40;99.90
15967;DHT22;15175;48.154;11.534;2023-10-31T14:36:44;12.40;99.90
15967;DHT22;15175;48.154;11.534;2023-10-31T14:39:11;12.40;99.90
15967;DHT22;15175;48.154;11.534;2023-10-31T14:41:39;12.40;99.90
15967;DHT22;15175;48.154;11.534;2023-10-31T14:44:06;12.40;99.90
15967;DHT22;15175;48.154;11.534;2023-10-31T14:46:34;12.50;99.90
15967;DHT22;15175;48.154;11.534;2023-10-31T14:49:03;12.40;99.90
15967;DHT22;15175;48.154;11.534;2023-10-31T14:51:30;12.40;99.90
15967;DHT22;15175;48.154;11.534;2023-10-31T14:53:57;12.40;99.90
15967;DHT22;15175;48.154;11.534;2023-10-31T14:56:25;12.40;99.90
15967;DHT22;15175;48.154;11.534;2023-10-31T14:58:55;12.40;99.90
15967;DHT22;15175;48.154;11.534;2023-10-31T15:01:22;12.40;99.90
15967;DHT22;15175;48.154;11.534;2023-10-31T15:03:49;12.30;99.90
15967;DHT22;15175;48.154;11.534;2023-10-31T15:06:20;12.30;99.90
15967;DHT22;15175;48.154;11.534;2023-10-31T15:08:48;12.30;99.90
15967;DHT22;15175;48.154;11.534;2023-10-31T15:11:15;12.40;99.90
15967;DHT22;15175;48.154;11.534;2023-10-31T15:13:42;12.30;99.90
15967;DHT22;15175;48.154;11.534;2023-10-31T15:16:10;12.30;99.90
15967;DHT22;15175;48.154;11.534;2023-10-31T15:18:37;12.30;99.90
15967;DHT22;15175;48.154;11.534;2023-10-31T15:21:04;12.30;99.90
15967;DHT22;15175;48.154;11.534;2023-10-31T15:23:33;12.40;99.90